Arnolds Park, Iowa
Current Conditions -  °F | °C
As of 8:53 AM on Sunday 21 Dec 2014 (Local Time) from KSPW Reporting Station
Haze Haze  
Wind Chill: 27°   Ceiling: 300
Heat Index: 36°   Visibility: 1.5mi
Dew Point: 34°   Wind: 15mph
Humidity: 93%   Direction: 180°S
Pressure: 29.81"   Gusts: NA
Location:  43.37°N, 95.12°W
Report Text: KSPW 211453Z AUTO 18013KT 1 1/2SM BR OVC003 02/01 A2981 RMK AO2 SLP107 T00220011 58011 TSNO
Loading
Personal Weather Stations






























Interactive Weather Map New forecast layout! Learn more

10-Day Weather Forecast

Advertisements
Track Severe Weather on mobile